createdAt,value
2023-03-16T00:00:36.691Z,6.75
2023-03-16T00:01:35.857Z,6.75
2023-03-16T00:02:35.321Z,6.75
2023-03-16T00:03:35.289Z,6.75
2023-03-16T00:04:34.568Z,6.75
2023-03-16T00:05:35.105Z,6.75
2023-03-16T00:06:35.272Z,6.75
2023-03-16T00:07:35.250Z,6.75
2023-03-16T00:08:34.664Z,6.781
2023-03-16T00:09:34.912Z,6.791
2023-03-16T00:10:35.417Z,6.760
2023-03-16T00:11:35.552Z,6.75
2023-03-16T00:12:34.927Z,6.760
2023-03-16T00:13:35.321Z,6.75
2023-03-16T00:14:34.558Z,6.75
2023-03-16T00:15:35.080Z,6.75
2023-03-16T00:16:34.800Z,6.75
2023-03-16T00:17:35.842Z,6.75
2023-03-16T00:18:35.291Z,6.75
2023-03-16T00:19:34.851Z,6.75
2023-03-16T00:20:36.130Z,6.75
2023-03-16T00:21:35.161Z,6.75
2023-03-16T00:22:34.639Z,6.75
2023-03-16T00:23:34.726Z,6.75
2023-03-16T00:24:34.935Z,6.75
2023-03-16T00:25:35.916Z,6.75
2023-03-16T00:26:35.002Z,6.75
2023-03-16T00:27:34.613Z,6.75
2023-03-16T00:28:35.183Z,6.75
2023-03-16T00:29:34.543Z,6.75
2023-03-16T00:30:35.309Z,6.75
2023-03-16T00:31:35.008Z,6.75
2023-03-16T00:32:34.539Z,6.718
2023-03-16T00:33:34.780Z,6.686
2023-03-16T00:34:35.132Z,6.697
2023-03-16T00:35:35.116Z,6.686
2023-03-16T00:36:35.112Z,6.686
2023-03-16T00:37:34.958Z,6.686
2023-03-16T00:38:34.450Z,6.686
2023-03-16T00:39:35.545Z,6.686
2023-03-16T00:41:36.125Z,6.686
2023-03-16T00:42:34.875Z,6.697
2023-03-16T00:43:35.514Z,6.699
2023-03-16T00:44:35.066Z,6.686
2023-03-16T00:45:34.794Z,6.686
2023-03-16T00:46:35.729Z,6.714
2023-03-16T00:47:35.027Z,6.712
2023-03-16T00:48:34.152Z,6.731
2023-03-16T00:49:34.466Z,6.75
2023-03-16T00:50:35.512Z,6.75
2023-03-16T00:51:35.349Z,6.737
2023-03-16T00:52:35.359Z,6.686
2023-03-16T00:53:34.850Z,6.686
2023-03-16T00:54:35.234Z,6.686
2023-03-16T00:55:35.032Z,6.699
2023-03-16T00:56:34.439Z,6.704
2023-03-16T00:57:34.623Z,6.737
2023-03-16T00:58:34.716Z,6.75
2023-03-16T00:59:35.275Z,6.724
2023-03-16T01:00:36.789Z,6.704
2023-03-16T01:01:40.170Z,6.75
2023-03-16T01:02:35.206Z,6.75
2023-03-16T01:03:35.648Z,6.75
2023-03-16T01:04:36.287Z,6.75
2023-03-16T01:05:35.831Z,6.75
2023-03-16T01:06:35.814Z,6.75
2023-03-16T01:07:35.673Z,6.770
2023-03-16T01:08:35.194Z,6.75
2023-03-16T01:09:35.533Z,6.75
2023-03-16T01:10:35.343Z,6.75
2023-03-16T01:11:35.236Z,6.75
2023-03-16T01:12:35.028Z,6.75
2023-03-16T01:13:35.348Z,6.75
2023-03-16T01:14:35.557Z,6.75
2023-03-16T01:15:36.020Z,6.75
2023-03-16T01:16:34.999Z,6.75
2023-03-16T01:17:34.741Z,6.75
2023-03-16T01:18:35.533Z,6.75
2023-03-16T01:19:35.484Z,6.75
2023-03-16T01:20:35.351Z,6.75
2023-03-16T01:21:35.416Z,6.75
2023-03-16T01:22:35.492Z,6.75
2023-03-16T01:23:35.222Z,6.75
2023-03-16T01:24:34.534Z,6.75
2023-03-16T01:25:35.232Z,6.75
2023-03-16T01:26:35.096Z,6.75
2023-03-16T01:27:35.235Z,6.75
2023-03-16T01:28:35.334Z,6.75
2023-03-16T01:29:34.937Z,6.75
2023-03-16T01:30:36.716Z,6.75
2023-03-16T01:31:35.769Z,6.75
2023-03-16T01:32:34.921Z,6.75
2023-03-16T01:33:35.099Z,6.75
2023-03-16T01:34:34.348Z,6.75
2023-03-16T01:35:34.969Z,6.75
2023-03-16T01:36:35.993Z,6.729
2023-03-16T01:37:34.061Z,6.686
2023-03-16T01:38:34.496Z,6.686
2023-03-16T01:39:34.956Z,6.697
2023-03-16T01:40:35.754Z,6.75
2023-03-16T01:41:35.959Z,6.75
2023-03-16T01:42:35.534Z,6.75
2023-03-16T01:43:34.710Z,6.75
2023-03-16T01:44:35.162Z,6.75
2023-03-16T01:45:34.754Z,6.75
2023-03-16T01:46:35.104Z,6.75
2023-03-16T01:47:34.653Z,6.75
2023-03-16T01:48:38.296Z,6.75
2023-03-16T01:49:34.270Z,6.75
2023-03-16T01:50:35.184Z,6.75
2023-03-16T01:51:34.132Z,6.760
2023-03-16T01:52:34.390Z,6.75
2023-03-16T01:54:34.227Z,6.75
2023-03-16T01:56:08.371Z,6.75
2023-03-16T01:56:35.240Z,6.75
2023-03-16T01:57:34.563Z,6.791
2023-03-16T01:58:34.737Z,6.770
2023-03-16T01:59:35.154Z,6.781
2023-03-16T02:00:35.874Z,6.811
2023-03-16T02:01:35.974Z,6.811
2023-03-16T02:02:35.041Z,6.801
2023-03-16T02:03:35.102Z,6.781
2023-03-16T02:04:35.092Z,6.791
2023-03-16T02:05:35.161Z,6.791
2023-03-16T02:06:34.405Z,6.75
2023-03-16T02:07:34.676Z,6.760
2023-03-16T02:08:35.069Z,6.781
2023-03-16T02:09:34.859Z,6.811
2023-03-16T02:10:35.513Z,6.811
2023-03-16T02:11:35.025Z,6.801
2023-03-16T02:12:34.634Z,6.781
2023-03-16T02:13:34.996Z,6.801
2023-03-16T02:14:34.373Z,6.770
2023-03-16T02:15:35.472Z,6.811
2023-03-16T02:16:35.151Z,6.811
2023-03-16T02:17:34.085Z,6.774
2023-03-16T02:18:34.508Z,6.811
2023-03-16T02:19:34.642Z,6.811
2023-03-16T02:20:40.592Z,6.811
2023-03-16T02:21:34.795Z,6.811
2023-03-16T02:22:34.779Z,6.811
2023-03-16T02:23:35.052Z,6.811
2023-03-16T02:24:34.439Z,6.811
2023-03-16T02:25:35.294Z,6.811
2023-03-16T02:27:34.571Z,6.811
2023-03-16T02:28:35.183Z,6.821
2023-03-16T02:29:34.476Z,6.811
2023-03-16T02:30:44.101Z,6.811
2023-03-16T02:31:34.872Z,6.811
2023-03-16T02:32:35.258Z,6.811
2023-03-16T02:33:34.307Z,6.811
2023-03-16T02:34:34.439Z,6.829
2023-03-16T02:35:35.137Z,6.875
2023-03-16T02:36:34.725Z,6.833
2023-03-16T02:37:34.877Z,6.875
2023-03-16T02:38:34.971Z,6.875
2023-03-16T02:39:34.855Z,6.875
2023-03-16T02:40:35.317Z,6.875
2023-03-16T02:41:35.167Z,6.854
2023-03-16T02:42:34.275Z,6.875
2023-03-16T02:43:35.093Z,6.843
2023-03-16T02:44:34.977Z,6.843
2023-03-16T02:45:35.826Z,6.875
2023-03-16T02:46:35.353Z,6.864
2023-03-16T02:47:34.455Z,6.864
2023-03-16T02:48:34.923Z,6.864
2023-03-16T02:49:35.552Z,6.875
2023-03-16T02:50:35.309Z,6.875
2023-03-16T02:51:34.864Z,6.875
2023-03-16T02:52:36.039Z,6.875
2023-03-16T02:53:34.448Z,6.875
2023-03-16T02:54:34.655Z,6.875
2023-03-16T02:55:35.844Z,6.875
2023-03-16T02:56:34.988Z,6.875
2023-03-16T02:57:34.395Z,6.875
2023-03-16T02:58:35.048Z,6.875
2023-03-16T02:59:34.176Z,6.864
2023-03-16T03:00:35.860Z,6.843
2023-03-16T03:01:35.343Z,6.833
2023-03-16T03:02:56.996Z,6.864
2023-03-16T03:03:34.746Z,6.864
2023-03-16T03:04:35.100Z,6.875
2023-03-16T03:05:34.432Z,6.875
2023-03-16T03:06:34.588Z,6.875
2023-03-16T03:07:34.792Z,6.875
2023-03-16T03:08:34.968Z,6.875
2023-03-16T03:09:34.836Z,6.875
2023-03-16T03:10:35.620Z,6.875
2023-03-16T03:11:35.138Z,6.875
2023-03-16T03:12:34.575Z,6.875
2023-03-16T03:13:34.978Z,6.854
2023-03-16T03:14:34.873Z,6.875
2023-03-16T03:15:35.691Z,6.875
2023-03-16T03:16:35.107Z,6.875
2023-03-16T03:17:34.511Z,6.875
2023-03-16T03:18:34.951Z,6.875
2023-03-16T03:19:35.396Z,6.875
2023-03-16T03:20:35.193Z,6.875
2023-03-16T03:21:34.791Z,6.875
2023-03-16T03:22:35.047Z,6.875
2023-03-16T03:23:34.383Z,6.875
2023-03-16T03:24:34.736Z,6.854
2023-03-16T03:25:35.054Z,6.875
2023-03-16T03:26:33.999Z,6.864
2023-03-16T03:27:34.044Z,6.864
2023-03-16T03:28:34.375Z,6.822
2023-03-16T03:29:34.816Z,6.833
2023-03-16T03:30:36.034Z,6.864
2023-03-16T03:31:34.829Z,6.833
2023-03-16T03:32:34.816Z,6.811
2023-03-16T03:33:35.371Z,6.811
2023-03-16T03:34:35.063Z,6.811
2023-03-16T03:35:36.009Z,6.843
2023-03-16T03:36:34.459Z,6.864
2023-03-16T03:37:34.936Z,6.811
2023-03-16T03:38:34.360Z,6.811
2023-03-16T03:39:35.092Z,6.811
2023-03-16T03:40:34.689Z,6.811
2023-03-16T03:41:35.134Z,6.811
2023-03-16T03:42:35.008Z,6.811
2023-03-16T03:43:34.710Z,6.811
2023-03-16T03:44:34.851Z,6.822
2023-03-16T03:45:35.341Z,6.833
2023-03-16T03:46:35.472Z,6.811
2023-03-16T03:47:35.068Z,6.811
2023-03-16T03:48:34.209Z,6.811
2023-03-16T03:49:34.497Z,6.811
2023-03-16T03:50:35.242Z,6.811
2023-03-16T03:51:34.618Z,6.822
2023-03-16T03:52:34.349Z,6.811
2023-03-16T03:53:34.920Z,6.811
2023-03-16T03:54:35.470Z,6.811
2023-03-16T03:55:35.069Z,6.862
2023-03-16T03:56:34.720Z,6.875
2023-03-16T03:57:35.407Z,6.875
2023-03-16T03:58:34.700Z,6.875
2023-03-16T03:59:35.032Z,6.862
2023-03-16T04:00:35.463Z,6.848
2023-03-16T04:01:35.766Z,6.837
2023-03-16T04:02:35.863Z,6.866
2023-03-16T04:03:36.129Z,6.875
2023-03-16T04:04:34.681Z,6.875
2023-03-16T04:05:35.742Z,6.875
2023-03-16T04:06:35.459Z,6.875
2023-03-16T04:07:35.227Z,6.875
2023-03-16T04:08:34.586Z,6.839
2023-03-16T04:09:35.473Z,6.811
2023-03-16T04:10:35.809Z,6.811
2023-03-16T04:11:35.708Z,6.811
2023-03-16T04:12:35.184Z,6.833
2023-03-16T04:13:35.012Z,6.811
2023-03-16T04:14:34.582Z,6.811
2023-03-16T04:15:35.779Z,6.811
2023-03-16T04:16:35.888Z,6.811
2023-03-16T04:17:35.374Z,6.811
2023-03-16T04:18:36.679Z,6.811
2023-03-16T04:19:34.831Z,6.811
2023-03-16T04:20:35.235Z,6.811
2023-03-16T04:21:34.694Z,6.811
2023-03-16T04:22:35.458Z,6.811
2023-03-16T04:23:35.224Z,6.781
2023-03-16T04:24:34.885Z,6.801
2023-03-16T04:25:35.884Z,6.811
2023-03-16T04:26:35.780Z,6.811
2023-03-16T04:27:35.347Z,6.811
2023-03-16T04:28:35.224Z,6.811
2023-03-16T04:29:35.029Z,6.811
2023-03-16T04:30:35.258Z,6.822
2023-03-16T04:31:35.109Z,6.811
2023-03-16T04:32:34.496Z,6.811
2023-03-16T04:33:34.592Z,6.811
2023-03-16T04:34:35.034Z,6.811
2023-03-16T04:35:34.606Z,6.811
2023-03-16T04:36:34.813Z,6.811
2023-03-16T04:37:35.133Z,6.801
2023-03-16T04:38:34.828Z,6.781
2023-03-16T04:39:35.070Z,6.811
2023-03-16T04:40:35.447Z,6.811
2023-03-16T04:41:35.415Z,6.811
2023-03-16T04:42:35.017Z,6.760
2023-03-16T04:43:34.990Z,6.781
2023-03-16T04:44:34.688Z,6.811
2023-03-16T04:45:36.079Z,6.811
2023-03-16T04:46:34.668Z,6.801
2023-03-16T04:47:35.466Z,6.811
2023-03-16T04:48:34.950Z,6.811
2023-03-16T04:49:35.145Z,6.811
2023-03-16T04:50:34.698Z,6.811
2023-03-16T04:51:35.369Z,6.811
2023-03-16T04:52:35.264Z,6.811
2023-03-16T04:53:35.296Z,6.760
2023-03-16T04:54:35.340Z,6.75
2023-03-16T04:55:35.670Z,6.75
2023-03-16T04:56:35.054Z,6.75
2023-03-16T04:57:35.784Z,6.75
2023-03-16T04:58:35.182Z,6.75
2023-03-16T04:59:34.842Z,6.75
2023-03-16T05:00:36.781Z,6.770
2023-03-16T05:01:43.972Z,6.811
2023-03-16T05:02:34.799Z,6.75
2023-03-16T05:03:35.501Z,5.599
2023-03-16T05:04:34.863Z,6.760
2023-03-16T05:05:35.609Z,6.811
2023-03-16T05:06:34.625Z,6.781
2023-03-16T05:07:49.034Z,6.781
2023-03-16T05:08:34.729Z,6.801
2023-03-16T05:09:35.113Z,6.811
2023-03-16T05:10:34.379Z,6.811
2023-03-16T05:11:35.145Z,6.801
2023-03-16T05:12:35.073Z,6.770
2023-03-16T05:13:34.568Z,6.75
2023-03-16T05:14:34.654Z,6.75
2023-03-16T05:15:35.840Z,6.791
2023-03-16T05:16:35.468Z,6.801
2023-03-16T05:17:35.022Z,6.811
2023-03-16T05:18:34.479Z,6.811
2023-03-16T05:19:35.044Z,6.811
2023-03-16T05:20:34.944Z,6.801
2023-03-16T05:21:35.818Z,6.75
2023-03-16T05:22:35.317Z,6.75
2023-03-16T05:23:40.238Z,6.75
2023-03-16T05:24:34.880Z,6.760
2023-03-16T05:25:36.841Z,6.811
2023-03-16T05:26:35.544Z,6.758
2023-03-16T05:27:35.221Z,6.75
2023-03-16T05:28:34.930Z,6.75
2023-03-16T05:29:43.202Z,6.799
2023-03-16T05:30:35.230Z,5.599
2023-03-16T05:31:34.696Z,6.811
2023-03-16T05:32:35.797Z,6.811
2023-03-16T05:33:35.321Z,6.811
2023-03-16T05:34:35.110Z,6.811
2023-03-16T05:35:37.770Z,6.811
2023-03-16T05:36:35.274Z,6.811
2023-03-16T05:37:34.494Z,6.811
2023-03-16T05:38:35.083Z,6.811
2023-03-16T05:39:34.656Z,6.811
2023-03-16T05:40:35.867Z,6.811
2023-03-16T05:41:35.760Z,6.811
2023-03-16T05:42:35.846Z,6.811
2023-03-16T05:43:34.974Z,6.799
2023-03-16T05:44:35.276Z,6.811
2023-03-16T05:45:34.992Z,6.811
2023-03-16T05:46:34.368Z,6.811
2023-03-16T05:47:34.736Z,6.811
2023-03-16T05:48:35.368Z,6.811
2023-03-16T05:49:54.044Z,6.822
2023-03-16T05:50:34.926Z,6.811
2023-03-16T05:51:35.638Z,6.811
2023-03-16T05:52:35.272Z,6.811
2023-03-16T05:53:34.894Z,6.811
2023-03-16T05:54:35.650Z,6.811
2023-03-16T05:55:35.537Z,6.833
2023-03-16T05:56:36.104Z,6.866
2023-03-16T05:57:34.733Z,6.824
2023-03-16T05:58:35.939Z,6.811
2023-03-16T05:59:36.097Z,6.811
2023-03-16T06:00:36.686Z,6.811
2023-03-16T06:01:36.889Z,6.811
2023-03-16T06:02:35.726Z,6.875
2023-03-16T06:03:35.956Z,6.864
2023-03-16T06:04:35.608Z,6.854
2023-03-16T06:05:35.735Z,6.864
2023-03-16T06:06:36.337Z,6.875
2023-03-16T06:07:35.090Z,6.875
2023-03-16T06:08:35.035Z,6.875
2023-03-16T06:09:34.900Z,6.875
2023-03-16T06:10:36.507Z,6.843
2023-03-16T06:11:36.333Z,6.833
2023-03-16T06:12:36.809Z,6.875
2023-03-16T06:13:36.352Z,6.843
2023-03-16T06:14:35.112Z,6.822
2023-03-16T06:15:35.563Z,6.843
2023-03-16T06:16:35.339Z,6.833
2023-03-16T06:17:35.874Z,6.875
2023-03-16T06:18:35.721Z,6.875
2023-03-16T06:19:35.413Z,6.875
2023-03-16T06:20:35.594Z,6.875
2023-03-16T06:21:36.270Z,6.875
2023-03-16T06:22:35.676Z,6.875
2023-03-16T06:23:35.462Z,6.854
2023-03-16T06:24:35.693Z,6.875
2023-03-16T06:25:38.867Z,6.875
2023-03-16T06:26:35.187Z,6.875
2023-03-16T06:27:35.897Z,6.875
2023-03-16T06:28:35.967Z,6.864
2023-03-16T06:29:35.818Z,6.854
2023-03-16T06:30:36.662Z,6.875
2023-03-16T06:32:11.049Z,6.875
2023-03-16T06:32:37.298Z,6.875
2023-03-16T06:33:35.434Z,6.875
2023-03-16T06:34:38.061Z,6.875
2023-03-16T06:35:37.161Z,6.875
2023-03-16T06:36:36.488Z,6.875
2023-03-16T06:37:35.500Z,6.875
2023-03-16T06:38:35.668Z,6.864
2023-03-16T06:39:35.771Z,6.811
2023-03-16T06:40:36.102Z,6.854
2023-03-16T06:41:34.930Z,6.875
2023-03-16T06:43:35.701Z,6.875
2023-03-16T06:45:36.836Z,6.875
2023-03-16T06:46:35.963Z,6.875
2023-03-16T06:47:35.838Z,6.875
2023-03-16T06:48:35.946Z,6.864
2023-03-16T06:49:35.960Z,5.699
2023-03-16T06:50:36.318Z,6.875
2023-03-16T06:51:35.372Z,6.875
2023-03-16T06:52:35.630Z,6.875
2023-03-16T06:53:37.201Z,5.699
2023-03-16T06:54:36.272Z,6.906
2023-03-16T06:55:38.848Z,6.936
2023-03-16T06:56:35.573Z,6.936
2023-03-16T06:57:36.306Z,6.936
2023-03-16T06:58:35.827Z,6.936
2023-03-16T06:59:35.530Z,6.936
2023-03-16T07:00:37.763Z,6.936
2023-03-16T07:01:36.955Z,6.936
2023-03-16T07:02:35.097Z,6.936
2023-03-16T07:03:35.660Z,6.936
2023-03-16T07:04:36.029Z,6.936
2023-03-16T07:05:35.818Z,6.936
2023-03-16T07:06:35.979Z,6.936
2023-03-16T07:07:35.217Z,6.887
2023-03-16T07:08:34.975Z,6.892
2023-03-16T07:09:38.694Z,6.936
2023-03-16T07:10:36.696Z,6.936
2023-03-16T07:11:36.005Z,6.936
2023-03-16T07:12:35.415Z,6.936
2023-03-16T07:13:35.851Z,6.936
2023-03-16T07:14:35.880Z,6.936
2023-03-16T07:15:36.659Z,6.936
2023-03-16T07:16:35.482Z,6.936
2023-03-16T07:17:36.785Z,6.936
2023-03-16T07:18:35.794Z,6.936
2023-03-16T07:19:36.333Z,6.936
2023-03-16T07:20:38.062Z,6.936
2023-03-16T07:21:35.862Z,6.936
2023-03-16T07:22:35.933Z,6.936
2023-03-16T07:23:36.334Z,6.936
2023-03-16T07:24:35.950Z,6.936
2023-03-16T07:25:36.420Z,6.936
2023-03-16T07:26:35.728Z,6.936
2023-03-16T07:27:36.072Z,6.979
2023-03-16T07:28:35.392Z,7
2023-03-16T07:29:36.091Z,7
2023-03-16T07:30:36.419Z,6.979
2023-03-16T07:31:35.451Z,7
2023-03-16T07:32:35.755Z,7
2023-03-16T07:33:35.905Z,7
2023-03-16T07:34:36.541Z,7
2023-03-16T07:35:36.676Z,7
2023-03-16T07:36:36.435Z,7
2023-03-16T07:37:39.466Z,7
2023-03-16T07:38:36.498Z,7
2023-03-16T07:39:36.402Z,7
2023-03-16T07:40:36.419Z,7
2023-03-16T07:41:36.665Z,7
2023-03-16T07:42:36.633Z,7
2023-03-16T07:43:36.675Z,7
2023-03-16T07:44:41.608Z,7
2023-03-16T07:45:36.692Z,5.800
2023-03-16T07:46:36.936Z,7
2023-03-16T07:47:40.376Z,7
2023-03-16T07:48:36.631Z,7
2023-03-16T07:49:36.446Z,7
2023-03-16T07:50:36.779Z,7
2023-03-16T07:51:36.725Z,7
2023-03-16T07:52:37.553Z,7.031
2023-03-16T07:53:36.754Z,7.041
2023-03-16T07:54:36.819Z,7.010
2023-03-16T07:55:37.664Z,7.020
2023-03-16T07:56:49.209Z,5.800
2023-03-16T07:57:36.409Z,7.020
2023-03-16T07:58:36.275Z,7.061
2023-03-16T07:59:36.786Z,7.061
2023-03-16T08:00:59.895Z,7.061
2023-03-16T08:01:37.740Z,7.041
2023-03-16T08:02:37.344Z,7.061
2023-03-16T08:03:37.501Z,7.061
2023-03-16T08:04:36.201Z,7.061
2023-03-16T08:05:36.670Z,7.061
2023-03-16T08:07:07.040Z,7.061
2023-03-16T08:07:38.122Z,7.061
2023-03-16T08:08:35.772Z,7.061
2023-03-16T08:09:36.724Z,7.061
2023-03-16T08:10:36.576Z,7.061
2023-03-16T08:11:36.809Z,7.061
2023-03-16T08:12:36.419Z,7.051
2023-03-16T08:13:36.384Z,7.061
2023-03-16T08:14:54.934Z,7.061
2023-03-16T08:15:36.854Z,7.061
2023-03-16T08:17:07.783Z,7.061
2023-03-16T08:17:38.548Z,7.061
2023-03-16T08:18:35.630Z,7.061
2023-03-16T08:19:35.939Z,7.061
2023-03-16T08:20:36.846Z,7.061
2023-03-16T08:21:49.224Z,7.061
2023-03-16T08:22:36.425Z,7.061
2023-03-16T08:23:37.097Z,7.061
2023-03-16T08:24:36.763Z,7.061
2023-03-16T08:25:36.835Z,7.083
2023-03-16T08:26:39.225Z,7.114
2023-03-16T08:27:36.934Z,7.114
2023-03-16T08:28:36.488Z,7.114
2023-03-16T08:29:36.377Z,7.099
2023-03-16T08:30:36.561Z,7.125
2023-03-16T08:31:36.294Z,7.125
2023-03-16T08:32:36.003Z,7.125
2023-03-16T08:33:37.271Z,7.125
2023-03-16T08:34:35.056Z,7.089
2023-03-16T08:35:36.131Z,7.112
2023-03-16T08:36:35.429Z,7.125
2023-03-16T08:37:36.119Z,7.125
2023-03-16T08:38:35.407Z,7.125
2023-03-16T08:39:35.428Z,7.125
2023-03-16T08:40:35.577Z,7.125
2023-03-16T08:41:36.087Z,7.125
2023-03-16T08:42:35.398Z,7.125
2023-03-16T08:43:35.530Z,7.125
2023-03-16T08:45:35.466Z,7.125
2023-03-16T08:46:36.521Z,7.125
2023-03-16T08:47:35.877Z,7.125
2023-03-16T08:48:35.991Z,7.125
2023-03-16T08:49:35.628Z,7.125
2023-03-16T08:50:35.479Z,7.125
2023-03-16T08:51:35.429Z,7.125
2023-03-16T08:52:36.681Z,7.125
2023-03-16T08:53:36.024Z,7.125
2023-03-16T08:54:35.207Z,7.125
2023-03-16T08:55:35.838Z,7.125
2023-03-16T08:56:35.388Z,7.125
2023-03-16T08:57:36.314Z,7.186
2023-03-16T08:58:35.982Z,7.156
2023-03-16T08:59:44.008Z,7.135
2023-03-16T09:00:36.688Z,7.125
2023-03-16T09:01:36.272Z,7.156
2023-03-16T09:02:35.740Z,7.135
2023-03-16T09:03:36.006Z,7.156
2023-03-16T09:04:35.700Z,7.186
2023-03-16T09:05:36.605Z,7.186
2023-03-16T09:06:36.018Z,7.186
2023-03-16T09:07:36.430Z,7.186
2023-03-16T09:08:35.905Z,7.186
2023-03-16T09:09:36.159Z,7.186
2023-03-16T09:10:35.570Z,7.186
2023-03-16T09:11:36.420Z,7.186
2023-03-16T09:12:35.493Z,7.186
2023-03-16T09:13:35.358Z,7.186
2023-03-16T09:14:35.820Z,7.186
2023-03-16T09:15:36.580Z,7.186
2023-03-16T09:16:36.475Z,7.186
2023-03-16T09:17:36.251Z,7.186
2023-03-16T09:18:36.473Z,7.186
2023-03-16T09:19:49.947Z,7.239
2023-03-16T09:20:43.380Z,7.25
2023-03-16T09:21:36.729Z,7.239
2023-03-16T09:22:36.816Z,7.229
2023-03-16T09:23:36.607Z,7.197
2023-03-16T09:24:36.113Z,7.25
2023-03-16T09:25:36.179Z,7.25
2023-03-16T09:27:36.793Z,7.239
2023-03-16T09:28:36.612Z,7.218
2023-03-16T09:29:36.208Z,7.218
2023-03-16T09:30:35.765Z,7.25
2023-03-16T09:31:36.426Z,7.25
2023-03-16T09:32:36.015Z,7.25
2023-03-16T09:33:35.899Z,7.25
2023-03-16T09:34:36.479Z,7.25
2023-03-16T09:35:36.965Z,7.25
2023-03-16T09:36:35.780Z,7.25
2023-03-16T09:37:44.908Z,7.25
2023-03-16T09:38:36.412Z,7.25
2023-03-16T09:39:36.583Z,7.25
2023-03-16T09:40:36.733Z,7.281
2023-03-16T09:41:36.436Z,7.25
2023-03-16T09:42:35.683Z,7.25
2023-03-16T09:43:36.316Z,7.25
2023-03-16T09:44:35.579Z,7.281
2023-03-16T09:45:36.336Z,7.281
2023-03-16T09:46:36.402Z,7.260
2023-03-16T09:47:36.211Z,7.260
2023-03-16T09:48:35.940Z,7.25
2023-03-16T09:49:36.186Z,7.25
2023-03-16T09:50:47.849Z,7.25
2023-03-16T09:51:36.641Z,7.25
2023-03-16T09:52:36.460Z,7.25
2023-03-16T09:53:36.337Z,7.25
2023-03-16T09:54:36.318Z,7.25
2023-03-16T09:55:50.973Z,7.25
2023-03-16T09:56:36.324Z,7.301
2023-03-16T09:57:36.452Z,7.301
2023-03-16T09:58:36.176Z,7.25
2023-03-16T09:59:35.760Z,7.311
2023-03-16T10:00:37.948Z,7.291
2023-03-16T10:01:51.017Z,7.270
2023-03-16T10:02:36.431Z,7.25
2023-03-16T10:03:36.462Z,7.299
2023-03-16T10:04:36.194Z,7.311
2023-03-16T10:05:36.306Z,7.311
2023-03-16T10:06:35.499Z,7.311
2023-03-16T10:07:36.641Z,7.311
2023-03-16T10:08:35.994Z,6.199
2023-03-16T10:09:35.808Z,7.311
2023-03-16T10:10:37.025Z,7.311
2023-03-16T10:11:35.682Z,7.311
2023-03-16T10:12:36.160Z,7.311
2023-03-16T10:13:35.544Z,7.311
2023-03-16T10:14:36.460Z,7.311
2023-03-16T10:15:55.377Z,7.311
2023-03-16T10:16:36.253Z,7.311
2023-03-16T10:17:37.089Z,7.311
2023-03-16T10:18:36.347Z,6.199
2023-03-16T10:19:35.347Z,7.311
2023-03-16T10:20:37.042Z,7.311
2023-03-16T10:21:34.851Z,7.311
2023-03-16T10:22:36.445Z,7.311
2023-03-16T10:23:35.649Z,7.311
2023-03-16T10:24:36.172Z,7.311
2023-03-16T10:25:35.994Z,7.311
2023-03-16T10:26:36.168Z,7.311
2023-03-16T10:27:35.296Z,7.311
2023-03-16T10:28:36.411Z,7.311
2023-03-16T10:29:35.967Z,7.311
2023-03-16T10:30:36.214Z,7.311
2023-03-16T10:31:36.546Z,7.375
2023-03-16T10:32:36.830Z,7.343
2023-03-16T10:33:36.823Z,6.099
2023-03-16T10:34:36.872Z,7.311
2023-03-16T10:35:36.515Z,7.375
2023-03-16T10:36:36.035Z,7.364
2023-03-16T10:37:35.407Z,7.354
2023-03-16T10:38:35.352Z,7.311
2023-03-16T10:39:35.942Z,7.333
2023-03-16T10:40:36.401Z,7.375
2023-03-16T10:41:36.183Z,7.375
2023-03-16T10:42:36.006Z,7.375
2023-03-16T10:43:36.105Z,7.375
2023-03-16T10:44:36.603Z,7.375
2023-03-16T10:45:37.388Z,7.375
2023-03-16T10:46:36.507Z,7.375
2023-03-16T10:47:35.962Z,7.375
2023-03-16T10:48:36.467Z,7.375
2023-03-16T10:49:35.843Z,7.375
2023-03-16T10:50:37.001Z,7.375
2023-03-16T10:51:36.561Z,7.375
2023-03-16T10:52:35.625Z,7.375
2023-03-16T10:53:35.931Z,7.375
2023-03-16T10:54:35.599Z,7.375
2023-03-16T10:55:36.405Z,7.375
2023-03-16T10:56:36.106Z,7.375
2023-03-16T10:57:36.020Z,7.375
2023-03-16T10:58:36.442Z,7.375
2023-03-16T10:59:36.994Z,7.375
2023-03-16T11:00:39.252Z,7.375
2023-03-16T11:01:38.110Z,7.385
2023-03-16T11:02:37.249Z,7.395
2023-03-16T11:03:38.215Z,7.375
2023-03-16T11:04:36.875Z,7.375
2023-03-16T11:05:37.102Z,7.375
2023-03-16T11:06:36.178Z,7.375
2023-03-16T11:07:35.916Z,7.395
2023-03-16T11:08:37.090Z,7.436
2023-03-16T11:09:35.723Z,7.436
2023-03-16T11:10:46.069Z,7.436
2023-03-16T11:11:36.160Z,7.436
2023-03-16T11:12:35.200Z,7.436
2023-03-16T11:13:36.096Z,7.436
2023-03-16T11:14:36.115Z,7.436
2023-03-16T11:15:40.550Z,7.436
2023-03-16T11:16:35.856Z,7.436
2023-03-16T11:17:36.334Z,7.436
2023-03-16T11:18:35.944Z,7.436
2023-03-16T11:19:36.702Z,7.436
2023-03-16T11:20:35.677Z,6.099
2023-03-16T11:21:36.497Z,7.447
2023-03-16T11:22:35.623Z,7.489
2023-03-16T11:23:35.990Z,7.489
2023-03-16T11:24:35.640Z,7.5
2023-03-16T11:25:36.750Z,7.489
2023-03-16T11:26:36.892Z,7.468
2023-03-16T11:27:36.076Z,7.479
2023-03-16T11:28:35.699Z,7.489
2023-03-16T11:29:36.044Z,7.474
2023-03-16T11:30:36.800Z,7.491
2023-03-16T11:31:36.200Z,7.5
2023-03-16T11:32:36.139Z,7.5
2023-03-16T11:33:36.494Z,7.5
2023-03-16T11:34:35.628Z,7.5
2023-03-16T11:35:39.906Z,7.5
2023-03-16T11:36:35.955Z,7.5
2023-03-16T11:37:36.095Z,7.5
2023-03-16T11:38:35.558Z,7.5
2023-03-16T11:39:35.996Z,7.5
2023-03-16T11:40:35.593Z,7.5
2023-03-16T11:41:35.661Z,7.5
2023-03-16T11:42:35.639Z,7.5
2023-03-16T11:43:35.326Z,7.5
2023-03-16T11:44:35.153Z,7.5
2023-03-16T11:45:35.808Z,7.5
2023-03-16T11:46:36.867Z,7.5
2023-03-16T11:47:36.523Z,7.5
2023-03-16T11:48:36.090Z,7.520
2023-03-16T11:49:35.569Z,7.537
2023-03-16T11:50:36.531Z,7.561
2023-03-16T11:51:36.008Z,7.561
2023-03-16T11:52:35.476Z,7.553
2023-03-16T11:53:36.399Z,7.561
2023-03-16T11:54:35.953Z,7.561
2023-03-16T11:55:36.820Z,7.561
2023-03-16T11:56:36.717Z,7.553
2023-03-16T11:57:36.036Z,7.561
2023-03-16T11:58:36.363Z,7.561
2023-03-16T11:59:36.342Z,7.561
2023-03-16T12:00:37.516Z,7.561
2023-03-16T12:01:37.361Z,7.561
2023-03-16T12:02:36.567Z,7.561
2023-03-16T12:03:36.946Z,7.561
2023-03-16T12:04:36.141Z,7.561
2023-03-16T12:05:36.132Z,7.561
2023-03-16T12:06:41.277Z,7.561
2023-03-16T12:07:36.706Z,7.561
2023-03-16T12:08:37.375Z,7.561
2023-03-16T12:09:36.898Z,7.561
2023-03-16T12:10:41.856Z,7.561
2023-03-16T12:11:37.167Z,7.561
2023-03-16T12:12:35.441Z,7.561
2023-03-16T12:13:38.976Z,7.572
2023-03-16T12:14:36.420Z,7.593
2023-03-16T12:15:37.434Z,7.614
2023-03-16T12:16:48.736Z,7.604
2023-03-16T12:17:36.971Z,6.300
2023-03-16T12:18:35.927Z,7.625
2023-03-16T12:19:37.086Z,7.625
2023-03-16T12:20:50.492Z,7.625
2023-03-16T12:21:39.983Z,7.635
2023-03-16T12:22:35.945Z,7.645
2023-03-16T12:23:43.000Z,7.625
2023-03-16T12:24:36.062Z,7.625
2023-03-16T12:25:36.767Z,7.625
2023-03-16T12:26:36.360Z,7.625
2023-03-16T12:27:36.031Z,7.625
2023-03-16T12:28:49.692Z,7.625
2023-03-16T12:29:36.296Z,7.625
2023-03-16T12:30:36.984Z,7.625
2023-03-16T12:31:35.286Z,7.635
2023-03-16T12:32:35.371Z,7.625
2023-03-16T12:33:35.775Z,7.625
2023-03-16T12:34:35.627Z,7.635
2023-03-16T12:35:36.795Z,7.656
2023-03-16T12:36:35.607Z,7.686
2023-03-16T12:37:35.698Z,7.686
2023-03-16T12:38:35.857Z,7.686
2023-03-16T12:39:36.261Z,7.686
2023-03-16T12:40:55.365Z,7.686
2023-03-16T12:41:35.800Z,7.656
2023-03-16T12:42:35.828Z,7.676
2023-03-16T12:43:36.379Z,7.686
2023-03-16T12:44:58.560Z,7.686
2023-03-16T12:45:37.336Z,7.686
2023-03-16T12:46:36.028Z,7.686
2023-03-16T12:47:36.416Z,7.686
2023-03-16T12:48:35.999Z,7.686
2023-03-16T12:49:35.256Z,7.686
2023-03-16T12:50:36.309Z,7.686
2023-03-16T12:51:36.489Z,7.686
2023-03-16T12:52:36.476Z,7.686
2023-03-16T12:53:35.764Z,7.737
2023-03-16T12:54:35.829Z,7.75
2023-03-16T12:55:35.867Z,7.75
2023-03-16T12:56:36.380Z,7.75
2023-03-16T12:57:36.956Z,7.75
2023-03-16T12:59:06.685Z,7.760
2023-03-16T12:59:37.424Z,7.75
2023-03-16T13:00:50.951Z,7.75
2023-03-16T13:01:37.038Z,7.75
2023-03-16T13:02:34.920Z,7.785
2023-03-16T13:03:36.965Z,7.787
2023-03-16T13:04:36.002Z,7.767
2023-03-16T13:05:35.417Z,7.75
2023-03-16T13:06:36.581Z,7.75
2023-03-16T13:07:36.019Z,7.762